AAL2026 KDTW-KLGA
Flight info
| Callsign | AAL2026 |
|---|---|
| Flight time | N/A |
| Altitude | 35000 |
| Route | PAVYL3 ESSBE SPYDY Q186 WEVEL ETG MIP4 |
| Aircraft | A321/M-SDE3FGHIRWY/LB1 |
Departure
| Time | 2026-05-05 16:34 |
|---|---|
| Airport | Detroit Metropolitan Wayne County Airport (KDTW) |
Arrival
| Time | N/A |
|---|---|
| Airport | LaGuardia Airport (KLGA) |
| Time | Latitude | Longitude | Altitude | Speed | Heading |
|---|---|---|---|---|---|
| 2026-05-05 15:58 | 42.22480 | -83.34995 | 646 ft | 0 kts | 144° |
| 2026-05-05 16:22 | 42.22518 | -83.35030 | 649 ft | 4 kts | 154° |
| 2026-05-05 16:22 | 42.22551 | -83.35037 | 647 ft | 0 kts | 208° |
| 2026-05-05 16:25 | 42.22550 | -83.35038 | 646 ft | 1 kts | 208° |
| 2026-05-05 16:25 | 42.22510 | -83.35148 | 647 ft | 10 kts | 245° |
| 2026-05-05 16:25 | 42.22455 | -83.35210 | 646 ft | 11 kts | 209° |
| 2026-05-05 16:26 | 42.22319 | -83.35312 | 648 ft | 12 kts | 213° |
| 2026-05-05 16:26 | 42.22172 | -83.35435 | 647 ft | 13 kts | 208° |
| 2026-05-05 16:27 | 42.22090 | -83.35495 | 646 ft | 14 kts | 208° |
| 2026-05-05 16:27 | 42.22033 | -83.35537 | 647 ft | 14 kts | 208° |
| 2026-05-05 16:27 | 42.21940 | -83.35585 | 645 ft | 15 kts | 174° |
| 2026-05-05 16:27 | 42.21848 | -83.35522 | 646 ft | 15 kts | 145° |
| 2026-05-05 16:28 | 42.21822 | -83.35392 | 645 ft | 15 kts | 88° |
| 2026-05-05 16:28 | 42.21822 | -83.35249 | 645 ft | 15 kts | 89° |
| 2026-05-05 16:28 | 42.21828 | -83.35109 | 646 ft | 15 kts | 88° |
| 2026-05-05 16:28 | 42.21831 | -83.34974 | 646 ft | 14 kts | 89° |
| 2026-05-05 16:29 | 42.21833 | -83.34838 | 646 ft | 15 kts | 89° |
| 2026-05-05 16:29 | 42.21835 | -83.34700 | 646 ft | 15 kts | 89° |
| 2026-05-05 16:29 | 42.21837 | -83.34562 | 647 ft | 15 kts | 83° |
| 2026-05-05 16:29 | 42.21904 | -83.34465 | 646 ft | 15 kts | 30° |
| 2026-05-05 16:30 | 42.21997 | -83.34396 | 646 ft | 16 kts | 28° |
| 2026-05-05 16:30 | 42.22094 | -83.34325 | 647 ft | 16 kts | 28° |
| 2026-05-05 16:30 | 42.22195 | -83.34251 | 647 ft | 17 kts | 28° |
| 2026-05-05 16:30 | 42.22297 | -83.34176 | 646 ft | 17 kts | 28° |
| 2026-05-05 16:31 | 42.22400 | -83.34100 | 646 ft | 17 kts | 28° |
| 2026-05-05 16:31 | 42.22504 | -83.34023 | 646 ft | 17 kts | 28° |
| 2026-05-05 16:31 | 42.22610 | -83.33945 | 647 ft | 18 kts | 28° |
| 2026-05-05 16:31 | 42.22711 | -83.33871 | 646 ft | 15 kts | 29° |
| 2026-05-05 16:32 | 42.22804 | -83.33802 | 646 ft | 16 kts | 28° |
| 2026-05-05 16:32 | 42.22856 | -83.33747 | 645 ft | 7 kts | 65° |
| 2026-05-05 16:32 | 42.22842 | -83.33678 | 646 ft | 6 kts | 120° |
| 2026-05-05 16:32 | 42.22819 | -83.33638 | 645 ft | 5 kts | 156° |
| 2026-05-05 16:33 | 42.22786 | -83.33647 | 645 ft | 4 kts | 207° |
| 2026-05-05 16:33 | 42.22777 | -83.33654 | 646 ft | 0 kts | 209° |
| 2026-05-05 16:33 | 42.22718 | -83.33698 | 647 ft | 37 kts | 209° |
| 2026-05-05 16:33 | 42.22287 | -83.34015 | 648 ft | 104 kts | 208° |
| 2026-05-05 16:34 | 42.21484 | -83.34612 | 649 ft | 158 kts | 208° |
| 2026-05-05 16:34 | 42.20434 | -83.35353 | 1035 ft | 174 kts | 211° |
| 2026-05-05 16:34 | 42.19339 | -83.36038 | 1783 ft | 175 kts | 202° |
| 2026-05-05 16:34 | 42.18118 | -83.36218 | 2443 ft | 180 kts | 184° |
| 2026-05-05 16:35 | 42.16818 | -83.36180 | 2712 ft | 196 kts | 183° |
| 2026-05-05 16:35 | 42.15384 | -83.36118 | 2856 ft | 215 kts | 183° |
| 2026-05-05 16:35 | 42.13821 | -83.36042 | 2978 ft | 235 kts | 182° |
| 2026-05-05 16:35 | 42.12096 | -83.35956 | 3158 ft | 259 kts | 182° |
| 2026-05-05 16:36 | 42.10264 | -83.35853 | 3770 ft | 266 kts | 182° |
| 2026-05-05 16:36 | 42.08412 | -83.35743 | 4568 ft | 266 kts | 183° |
| 2026-05-05 16:36 | 42.06569 | -83.35550 | 5372 ft | 269 kts | 174° |
| 2026-05-05 16:36 | 42.04822 | -83.34532 | 6134 ft | 282 kts | 150° |
| 2026-05-05 16:37 | 42.03482 | -83.32532 | 6788 ft | 299 kts | 125° |
| 2026-05-05 16:37 | 42.02818 | -83.29834 | 6983 ft | 309 kts | 106° |
| 2026-05-05 16:37 | 42.02418 | -83.26992 | 7023 ft | 309 kts | 105° |
| 2026-05-05 16:37 | 42.02031 | -83.24155 | 7031 ft | 309 kts | 105° |
| 2026-05-05 16:38 | 42.01642 | -83.21317 | 7033 ft | 309 kts | 105° |
| 2026-05-05 16:38 | 42.01450 | -83.18422 | 7033 ft | 314 kts | 91° |
| 2026-05-05 16:38 | 42.01762 | -83.15475 | 7464 ft | 320 kts | 81° |
| 2026-05-05 16:38 | 42.02196 | -83.12530 | 8152 ft | 322 kts | 82° |
| 2026-05-05 16:39 | 42.02649 | -83.09560 | 8782 ft | 328 kts | 77° |
| 2026-05-05 16:39 | 42.03353 | -83.06627 | 9408 ft | 331 kts | 74° |
| 2026-05-05 16:39 | 42.04092 | -83.03675 | 10007 ft | 335 kts | 73° |
| 2026-05-05 16:39 | 42.04853 | -83.00655 | 10320 ft | 350 kts | 73° |
| 2026-05-05 16:40 | 42.05657 | -82.97453 | 10454 ft | 372 kts | 73° |
| 2026-05-05 16:40 | 42.06511 | -82.94057 | 10573 ft | 393 kts | 73° |
| 2026-05-05 16:40 | 42.07408 | -82.90508 | 10877 ft | 406 kts | 73° |
| 2026-05-05 16:40 | 42.08324 | -82.86887 | 11366 ft | 411 kts | 73° |
| 2026-05-05 16:41 | 42.09248 | -82.83223 | 11902 ft | 415 kts | 73° |
| 2026-05-05 16:41 | 42.10179 | -82.79522 | 12444 ft | 419 kts | 72° |
| 2026-05-05 16:41 | 42.11106 | -82.75838 | 13020 ft | 422 kts | 72° |
| 2026-05-05 16:41 | 42.12048 | -82.72082 | 13611 ft | 425 kts | 72° |
| 2026-05-05 16:42 | 42.12995 | -82.68297 | 14105 ft | 428 kts | 72° |
| 2026-05-05 16:42 | 42.13877 | -82.64447 | 14602 ft | 431 kts | 78° |
| 2026-05-05 16:42 | 42.14334 | -82.60456 | 15106 ft | 432 kts | 89° |
| 2026-05-05 16:42 | 42.14368 | -82.56401 | 15612 ft | 434 kts | 94° |
| 2026-05-05 16:43 | 42.14339 | -82.52316 | 16131 ft | 438 kts | 94° |
| 2026-05-05 16:43 | 42.14313 | -82.48195 | 16616 ft | 442 kts | 93° |
| 2026-05-05 16:43 | 42.14164 | -82.44057 | 17108 ft | 443 kts | 101° |
| 2026-05-05 16:43 | 42.13679 | -82.39954 | 17589 ft | 445 kts | 103° |
| 2026-05-05 16:44 | 42.13162 | -82.35827 | 18081 ft | 448 kts | 103° |
| 2026-05-05 16:44 | 42.12639 | -82.31672 | 18514 ft | 452 kts | 103° |
| 2026-05-05 16:44 | 42.12112 | -82.27487 | 18941 ft | 455 kts | 103° |
| 2026-05-05 16:44 | 42.11582 | -82.23267 | 19359 ft | 458 kts | 103° |
| 2026-05-05 16:45 | 42.11045 | -82.19022 | 19785 ft | 461 kts | 103° |
| 2026-05-05 16:45 | 42.10502 | -82.14750 | 20199 ft | 464 kts | 103° |
| 2026-05-05 16:45 | 42.09954 | -82.10450 | 20605 ft | 468 kts | 103° |
| 2026-05-05 16:45 | 42.09402 | -82.06122 | 20992 ft | 471 kts | 103° |
| 2026-05-05 16:46 | 42.08849 | -82.01762 | 21382 ft | 474 kts | 102° |
| 2026-05-05 16:46 | 42.08292 | -81.97382 | 21765 ft | 477 kts | 102° |
| 2026-05-05 16:46 | 42.07725 | -81.92971 | 22144 ft | 479 kts | 103° |
| 2026-05-05 16:46 | 42.07024 | -81.88586 | 22503 ft | 479 kts | 110° |
| 2026-05-05 16:47 | 42.05823 | -81.84424 | 22855 ft | 476 kts | 121° |
| 2026-05-05 16:47 | 42.04138 | -81.80613 | 23209 ft | 472 kts | 131° |
| 2026-05-05 16:47 | 42.02071 | -81.77301 | 23515 ft | 467 kts | 141° |
| 2026-05-05 16:47 | 41.99599 | -81.74436 | 23804 ft | 460 kts | 152° |
| 2026-05-05 16:48 | 41.96934 | -81.72218 | 24089 ft | 455 kts | 159° |
| 2026-05-05 16:48 | 41.94149 | -81.70176 | 24389 ft | 458 kts | 159° |
| 2026-05-05 16:48 | 41.91345 | -81.68117 | 24687 ft | 460 kts | 159° |